Tiempo atmosférico en la estación meteorológica de Sopeira, Huesca (760 m.)



Fecha
DESCASC
Temp. máxima en grados centígrados (hora)
DESCASC
Temp. mínima en grados centígrados (hora)
DESCASC
Temp. media en grados centígrados
DESCASC
Racha de viento máxima en m/sg (hora)
DESCASC
Velocidad máxima media en intervalos de 10 minutos(hora)
DESCASC
Precipitaciones diarias en mm
DESCASC
Precipitaciones de 00:00 a 06:00 en mm
DESCASC
Precipitaciones de 06:00 a 12:00 en mm
DESCASC
Precipitaciones de 12:00 a 18:00 en mm
DESCASC
Precipitaciones de 18:00 a 24:00 en mm
DESCASC
22-01-2020 11.2 (00:00) 1.5 (03:20) 6.3 16.67 (00:10) 10.83 (10:50) 52.6 18.4 0 16.8 17.4
21-01-2020 11.5 (15:40) 5.7 (02:10) 8.6 19.17 (19:20) 9.72 (13:40) 1.8 0 0 1.8 0
20-01-2020 9 (15:40) 0.9 (08:10) 4.9 11.11 (00:20) 7.5 (20:20) 0 0 0 0 0
19-01-2020 9.7 (12:40) 3.8 (00:00) 6.7 16.11 (15:00) 7.78 (02:40) 0 0 0 0 0
18-01-2020 10.4 (15:00) -0.7 (-00:0) 4.8 13.06 (05:10) 9.44 (04:10) 0 0 0 0 0
17-01-2020 12.5 (13:30) 0.6 (00:00) 6.6 12.5 (16:50) 7.5 (22:00) 0.8 0 0 0.8 0
16-01-2020 13.7 (15:30) -0.4 (00:00) 6.6 14.44 (09:00) 10.28 (08:10) 0 0 0 0 0
15-01-2020 11.2 (16:10) -1.9 (-00:0) 4.6 13.33 (02:30) 10 (02:50) 0 0 0 0 0
14-01-2020 11 (15:30) -2.1 (-00:0) 4.5 13.61 (07:50) 8.89 (23:00) 0 0 0 0 0
13-01-2020 9.5 (14:40) -2.6 (-00:0) 3.5 15 (08:50) 9.72 (01:30) 0 0 0 0 0
12-01-2020 11 (15:50) -2.3 (-00:0) 4.4 15.56 (07:30) 10.28 (09:10) 0 0 0 0 0
11-01-2020 10.5 (16:10) -0.7 (-00:0) 4.9 12.5 (22:30) 9.17 (23:20) 0 0 0 0 0
10-01-2020 11.4 (14:30) 2 (00:00) 6.7 7.78 (05:30) 4.72 (05:30) 0.4 0 0.4 0 0
09-01-2020 12.7 (14:30) 0.6 (00:00) 6.6 13.33 (07:10) 9.72 (08:40) 0 0 0 0 0
08-01-2020 13.4 (15:10) 2.1 (00:00) 7.7 13.33 (06:00) 8.61 (05:40) 0 0 0 0 0
07-01-2020 11.6 (16:00) -0.3 (00:00) 5.7 14.44 (06:10) 8.61 (08:50) 0 0 0 0 0
06-01-2020 11.5 (16:00) -0.1 (00:00) 5.7 12.5 (00:30) 8.33 (23:10) 0 0 0 0 0
05-01-2020 13.9 (15:00) -1.1 (-00:0) 6.4 12.22 (23:59) 7.78 (22:20) 0 0 0 0 0
04-01-2020 10.9 (15:40) -0.3 (00:00) 5.3 15 (05:10) 9.72 (05:10) 0 0 0 0 0
03-01-2020 8.7 (15:30) 1.4 (00:00) 5 12.22 (08:40) 8.06 (02:10) 0 0 0 0 0
02-01-2020 11 (15:40) 0.1 (00:00) 5.6 13.89 (05:10) 10 (09:20) 0 0 0 0 0
01-01-2020 10.4 (15:10) 0.1 (00:00) 5.2 13.61 (07:30) 8.33 (07:30) 0 0 0 0 0
31-12-2019 6.6 (15:10) -0.9 (-00:0) 2.8 9.44 (00:50) 5 (09:00) 0 0 0 0 0
30-12-2019 -- (--) -- (--) -- -- (--) -- (--) -- 0 0 0 --
29-12-2019 10.7 (15:30) 0.1 (00:00) 5.4 11.11 (01:40) 7.22 (08:10) 0 0 0 0 0
28-12-2019 13.4 (15:20) 2.5 (00:00) 7.9 15 (07:50) 10 (09:00) 0 0 0 0 0
27-12-2019 12.2 (15:20) 1 (00:00) 6.6 14.44 (06:30) 10.28 (01:50) 0 0 0 0 0
26-12-2019 12.7 (16:00) 3.8 (00:00) 8.2 14.44 (02:20) 9.72 (00:10) 0 0 0 0 0

Gráficas

Temp. máximas Temp. mínimas Temp. medias Precipitaciones Rachas de viento máximas Velocidades máximas media en intervalos de 10 minutos

Datos horarios

Fecha y hora oficial Temperatura (ºC) Velocidad del viento (km/h) Dirección del viento Racha (km/h) Dirección de racha Precipitación (mm) Presión (hPa) Tendencia (hPa) Humedad (%)
2020-01-24 23:00:00 3.8 28 Noroeste 35 Noroeste 0 -- -- 82
2020-01-24 22:00:00 3.7 25 Noroeste 33 Noroeste 0 -- -- 84
2020-01-24 21:00:00 4.4 17 Noroeste 30 Noroeste 0 -- -- 82
2020-01-24 20:00:00 5.5 20 Noroeste 28 Noroeste 0 -- -- 79
2020-01-24 19:00:00 6.4 19 Noroeste 27 Noroeste 0 -- -- 75
2020-01-24 18:00:00 8.2 6 Noroeste 14 Noroeste 0 -- -- 69
2020-01-24 17:00:00 9.8 0 Calma 4 Sudeste 0 -- -- 61
2020-01-24 16:00:00 9.9 3 Sur 13 Sudoeste 0 -- -- 61
2020-01-24 15:00:00 10.9 10 Sudoeste 13 Sudoeste 0 -- -- 53
2020-01-24 14:00:00 10.2 3 Nordeste 10 Noroeste 0 -- -- 63
2020-01-24 13:00:00 7 6 Noroeste 24 Noroeste 0 -- -- 75
2020-01-24 12:00:00 4.7 20 Noroeste 34 Noroeste 0 -- -- 83
2020-01-24 11:00:00 2.6 22 Noroeste 38 Noroeste 0 -- -- 91
2020-01-24 10:00:00 1.4 33 Noroeste 43 Noroeste 0 -- -- 94
2020-01-24 09:00:00 1.7 31 Noroeste 40 Noroeste 0 -- -- 93
2020-01-24 08:00:00 2.1 31 Noroeste 41 Noroeste 0 -- -- 92
2020-01-24 07:00:00 2.6 27 Noroeste 42 Noroeste 0 -- -- 91
2020-01-24 06:00:00 3 29 Noroeste 39 Noroeste 0 -- -- 90
2020-01-24 05:00:00 3.5 25 Noroeste 36 Noroeste 0 -- -- 89
2020-01-24 04:00:00 3.7 26 Noroeste 40 Noroeste 0 -- -- 88
2020-01-24 03:00:00 4 27 Noroeste 36 Noroeste 0 -- -- 87
2020-01-24 02:00:00 4.2 21 Noroeste 40 Noroeste 0 -- -- 87
2020-01-24 01:00:00 4.4 21 Noroeste 37 Noroeste 0 -- -- 86
2020-01-24 00:00:00 4.4 20 Noroeste 35 Noroeste 0 -- -- 87
2020-01-23 23:00:00 4 21 Noroeste 37 Noroeste 0 -- -- 88
2020-01-23 22:00:00 3.8 23 Noroeste 32 Noroeste 0 -- -- 90
2020-01-23 21:00:00 3.5 19 Noroeste 29 Noroeste 0 -- -- 91
2020-01-23 20:00:00 4 18 Noroeste 27 Noroeste 0 -- -- 91
2020-01-23 19:00:00 4.8 12 Noroeste 22 Noroeste 0 -- -- 90
2020-01-23 18:00:00 5.2 3 Noroeste 11 Noroeste 0 -- -- 90
2020-01-23 17:00:00 5.8 9 Noroeste 15 Noroeste 0 -- -- 91
2020-01-23 16:00:00 5.7 2 Nordeste 15 Sur 0 -- -- 92
2020-01-23 15:00:00 5.4 10 Sudoeste 23 Sudoeste 0.4 -- -- 90
2020-01-23 14:00:00 5.8 13 Sudoeste 27 Sudoeste 1.2 -- -- 89
2020-01-23 13:00:00 5.5 14 Sudoeste 31 Sur 1.4 -- -- 93
2020-01-23 12:00:00 6.4 5 Sudoeste 27 Noroeste 0.2 -- -- 86
2020-01-23 11:00:00 6.1 21 Noroeste 39 Norte 0.2 -- -- 83
2020-01-23 10:00:00 6.7 24 Norte 46 Nordeste 0 -- -- 76
2020-01-23 09:00:00 5.7 21 Norte 45 Noroeste 1 -- -- 85
2020-01-23 08:00:00 5.7 27 Noroeste 39 Noroeste 5 -- -- 86
2020-01-23 07:00:00 3.6 4 Este 48 Noroeste 3.6 -- -- 94
2020-01-23 06:00:00 4 21 Norte 54 Noroeste 4.4 -- -- 96
2020-01-23 05:00:00 4.6 37 Noroeste 65 Noroeste 0.4 -- -- 90
2020-01-23 04:00:00 4.3 29 Noroeste 43 Noroeste 2.2 -- -- 91
2020-01-23 03:00:00 4.1 24 Norte 36 Noroeste 0.8 -- -- 92
2020-01-23 02:00:00 2.7 20 Noroeste 35 Noroeste 2.8 -- -- 97
2020-01-23 01:00:00 1.7 3 Este 21 Sur 5.8 -- -- 95
2020-01-23 00:00:00 3.2 16 Sudoeste 29 Sudoeste 4.2 -- -- 95
2020-01-22 23:00:00 3.8 6 Oeste 33 Sur 3 -- -- 95
2020-01-22 22:00:00 3.8 10 Sur 24 Sur 1.6 -- -- 94
2020-01-22 21:00:00 3.7 9 Sur 38 Noroeste 2.6 -- -- 94
2020-01-22 20:00:00 3.3 16 Noroeste 34 Noroeste 3.6 -- -- 94
2020-01-22 19:00:00 3.1 4 Noroeste 41 Noroeste 2.4 -- -- 93
2020-01-22 18:00:00 3 19 Noroeste 37 Noroeste 4 -- -- 91
2020-01-22 17:00:00 2.9 23 Noroeste 35 Noroeste 3.6 -- -- 91
2020-01-22 16:00:00 3.2 23 Norte 36 Norte 7.6 -- -- 88
2020-01-22 15:00:00 5.6 16 Noroeste 34 Noroeste 1.6 -- -- 83
2020-01-22 14:00:00 8.1 15 Norte 44 Noroeste 0 -- -- 70
2020-01-22 13:00:00 7.7 27 Noroeste 44 Noroeste 0 -- -- 74
2020-01-22 12:00:00 7.1 27 Noroeste 51 Noroeste 0 -- -- 75
2020-01-22 11:00:00 5.5 36 Noroeste 52 Noroeste 0 -- -- 80
2020-01-22 10:00:00 5.2 26 Noroeste 44 Noroeste 0 -- -- 80
2020-01-22 09:00:00 4.7 29 Noroeste 47 Noroeste 0 -- -- 81
2020-01-22 08:00:00 5.4 22 Norte 45 Noroeste 0 -- -- 78
2020-01-22 07:00:00 4.6 28 Noroeste 52 Noroeste 0 -- -- 81
2020-01-22 06:00:00 4.4 29 Norte 47 Norte 0.2 -- -- 82
2020-01-22 05:00:00 3.2 28 Norte 49 Noroeste 0 -- -- 86
2020-01-22 04:00:00 2.2 21 Norte 47 Noroeste 2.2 -- -- 91
2020-01-22 03:00:00 2.2 26 Noroeste 35 Noroeste 6.2 -- -- 89
2020-01-22 02:00:00 4.5 14 Sur 26 Oeste 8.6 -- -- 84
2020-01-22 01:00:00 8.4 15 Sudoeste 60 Este 1.2 -- -- 70
2020-01-22 00:00:00 11.2 11 Sudeste 41 Noroeste 0 -- -- 47
2020-01-21 23:00:00 11 17 Sur 61 Este 0 -- -- 47
2020-01-21 22:00:00 10.9 10 Nordeste 39 Nordeste 0 -- -- 48
2020-01-21 21:00:00 11 6 Este 58 Noroeste 0 -- -- 47
2020-01-21 20:00:00 11 19 Oeste 69 Norte 0 -- -- 46
2020-01-21 19:00:00 10.7 21 Noroeste 44 Noroeste 0 -- -- 48
2020-01-21 18:00:00 10.9 16 Noroeste 37 Noroeste 0 -- -- 49
2020-01-21 17:00:00 11 24 Norte 51 Nordeste 0 -- -- 50
2020-01-21 16:00:00 11 17 Noroeste 61 Este 0 -- -- 55
2020-01-21 15:00:00 10.7 21 Noroeste 66 Noroeste 0 -- -- 56
2020-01-21 14:00:00 8.1 27 Noroeste 62 Norte 1.8 -- -- 72
2020-01-21 13:00:00 9.9 20 Norte 60 Noroeste 0 -- -- 60
2020-01-21 12:00:00 11 23 Norte 49 Noroeste 0 -- -- 48
2020-01-21 11:00:00 10.7 23 Noroeste 59 Norte 0 -- -- 49
2020-01-21 10:00:00 10.4 25 Norte 57 Norte 0 -- -- 47
2020-01-21 09:00:00 10.3 20 Noroeste 49 Oeste 0 -- -- 43
2020-01-21 08:00:00 9.7 14 Noroeste 49 Noroeste 0 -- -- 43
2020-01-21 07:00:00 9.4 22 Noroeste 44 Noroeste 0 -- -- 44
2020-01-21 06:00:00 8.7 22 Noroeste 57 Noroeste 0 -- -- 44
2020-01-21 05:00:00 8.4 22 Norte 47 Noroeste 0 -- -- 45
2020-01-21 04:00:00 6.4 27 Noroeste 48 Noroeste 0 -- -- 48
2020-01-21 03:00:00 6.4 25 Noroeste 44 Noroeste 0 -- -- 47
2020-01-21 02:00:00 5.9 27 Noroeste 46 Noroeste 0 -- -- 49
2020-01-21 01:00:00 5.9 28 Noroeste 42 Noroeste 0 -- -- 49
2020-01-21 00:00:00 6.3 19 Noroeste 37 Noroeste 0 -- -- 48
2020-01-20 23:00:00 6 26 Noroeste 37 Noroeste 0 -- -- 50
2020-01-20 22:00:00 6.8 17 Noroeste 36 Noroeste 0 -- -- 46
2020-01-20 21:00:00 6.6 22 Noroeste 34 Noroeste 0 -- -- 47
2020-01-20 20:00:00 7 19 Noroeste 27 Noroeste 0 -- -- 46
2020-01-20 19:00:00 7.2 14 Norte 31 Norte 0 -- -- 44
2020-01-20 18:00:00 7.6 22 Noroeste 34 Noroeste 0 -- -- 43
2020-01-20 17:00:00 8.2 5 Norte 15 Noroeste 0 -- -- 40
2020-01-20 16:00:00 8.7 6 Sudoeste 15 Noroeste 0 -- -- 35
2020-01-20 15:00:00 8.8 10 Noroeste 19 Noroeste 0 -- -- 36
2020-01-20 14:00:00 8.4 11 Noroeste 19 Noroeste 0 -- -- 31
2020-01-20 13:00:00 7.6 12 Noroeste 28 Noroeste 0 -- -- 32
2020-01-20 12:00:00 5.5 14 Noroeste 25 Norte 0 -- -- 33
2020-01-20 11:00:00 4 19 Norte 34 Noroeste 0 -- -- 33
2020-01-20 10:00:00 2.4 23 Noroeste 34 Noroeste 0 -- -- 35
2020-01-20 09:00:00 1.4 24 Noroeste 36 Noroeste 0 -- -- 38
2020-01-20 08:00:00 1.1 18 Noroeste 33 Noroeste 0 -- -- 38
2020-01-20 07:00:00 1.5 18 Noroeste 27 Noroeste 0 -- -- 37
2020-01-20 06:00:00 1.4 5 Norte 18 Noroeste 0 -- -- 35
2020-01-20 05:00:00 2.9 8 Norte 30 Noroeste 0 -- -- 34
2020-01-20 04:00:00 3.9 6 Noroeste 28 Noroeste 0 -- -- 25
2020-01-20 03:00:00 4.3 8 Sudeste 34 Sudeste 0 -- -- 25
2020-01-20 02:00:00 4.1 11 Sur 40 Noroeste 0 -- -- 28
2020-01-20 01:00:00 4.1 9 Noroeste 40 Noroeste 0 -- -- 29
2020-01-20 00:00:00 4 10 Noroeste 36 Sudeste 0 -- -- 30
2020-01-19 23:00:00 4 15 Este 35 Noroeste 0 -- -- 31
2020-01-19 22:00:00 3.9 8 Sur 47 Noroeste 0 -- -- 31
2020-01-19 21:00:00 4.3 11 Noroeste 29 Este 0 -- -- 31
2020-01-19 20:00:00 4.8 13 Nordeste 30 Noroeste 0 -- -- 28
2020-01-19 19:00:00 5.2 8 Norte 29 Sudeste 0 -- -- 25
2020-01-19 18:00:00 5.8 9 Este 46 Noroeste 0 -- -- 23
2020-01-19 17:00:00 7.5 19 Norte 50 Noroeste 0 -- -- 22
2020-01-19 16:00:00 8.4 14 Sudeste 49 Noroeste 0 -- -- 22
2020-01-19 15:00:00 8.6 26 Norte 58 Norte 0 -- -- 22
2020-01-19 14:00:00 9.2 15 Noroeste 58 Noroeste 0 -- -- 22
2020-01-19 13:00:00 9.7 15 Este 42 Noroeste 0 -- -- 27
2020-01-19 12:00:00 8.9 17 Este 42 Sudeste 0 -- -- 30
2020-01-19 11:00:00 8.3 15 Noroeste 55 Noroeste 0 -- -- 31
2020-01-19 10:00:00 7.8 9 Nordeste 28 Noroeste 0 -- -- 32
2020-01-19 09:00:00 3.8 3 Este 20 Noroeste 0 -- -- 73
2020-01-19 08:00:00 4.7 11 Noroeste 22 Noroeste 0 -- -- 68
2020-01-19 07:00:00 5.3 10 Noroeste 32 Noroeste 0 -- -- 64
2020-01-19 06:00:00 5.8 15 Noroeste 25 Noroeste 0 -- -- 62
2020-01-19 05:00:00 5.8 15 Noroeste 26 Noroeste 0 -- -- 61
2020-01-19 04:00:00 6 16 Noroeste 34 Noroeste 0 -- -- 56
2020-01-19 03:00:00 5.6 22 Norte 49 Noroeste 0 -- -- 56
2020-01-19 02:00:00 5 22 Noroeste 33 Noroeste 0 -- -- 60
2020-01-19 01:00:00 4.7 24 Noroeste 30 Noroeste 0 -- -- 61
2020-01-19 00:00:00 4.9 14 Noroeste 28 Noroeste 0 -- -- 61
2020-01-18 23:00:00 4.7 17 Noroeste 24 Noroeste 0 -- -- 63
2020-01-18 22:00:00 5 14 Noroeste 20 Noroeste 0 -- -- 60
2020-01-18 21:00:00 5.4 10 Noroeste 22 Noroeste 0 -- -- 59
2020-01-18 20:00:00 6 12 Noroeste 18 Noroeste 0 -- -- 54
2020-01-18 19:00:00 6.9 7 Noroeste 9 Noroeste 0 -- -- 49
2020-01-18 18:00:00 7.6 4 Sudeste 10 Sur 0 -- -- 46
2020-01-18 17:00:00 9.1 8 Sur 16 Sur 0 -- -- 40
2020-01-18 16:00:00 10.3 5 Sur 14 Sudoeste 0 -- -- 39
2020-01-18 15:00:00 10.4 6 Sur 14 Sur 0 -- -- 41
2020-01-18 14:00:00 9.8 10 Sur 17 Sudoeste 0 -- -- 42
2020-01-18 13:00:00 7.4 3 Sur 42 Noroeste 0 -- -- 48
2020-01-18 12:00:00 4.2 29 Noroeste 41 Noroeste 0 -- -- 57
2020-01-18 11:00:00 2.2 15 Noroeste 20 Noroeste 0 -- -- 65
2020-01-18 10:00:00 1.2 8 Noroeste 32 Noroeste 0 -- -- 69
2020-01-18 09:00:00 1 22 Noroeste 40 Noroeste 0 -- -- 67
2020-01-18 08:00:00 0.8 25 Noroeste 40 Noroeste 0 -- -- 68
2020-01-18 07:00:00 0.3 22 Noroeste 42 Noroeste 0 -- -- 71
2020-01-18 06:00:00 0.1 31 Noroeste 47 Noroeste 0 -- -- 72
2020-01-18 05:00:00 -0.3 32 Noroeste 45 Noroeste 0 -- -- 75
2020-01-18 04:00:00 -0.6 31 Noroeste 43 Noroeste 0 -- -- 78
2020-01-18 03:00:00 -0.6 26 Noroeste 41 Noroeste 0 -- -- 82
2020-01-18 02:00:00 -0.3 26 Noroeste 35 Noroeste 0 -- -- 82
2020-01-18 01:00:00 0.2 24 Noroeste 37 Noroeste 0 -- -- 84
2020-01-18 00:00:00 0.6 15 Noroeste 33 Noroeste 0 -- -- 84
2020-01-17 23:00:00 1.5 21 Noroeste 37 Noroeste 0 -- -- 80
2020-01-17 22:00:00 1.9 27 Noroeste 37 Noroeste 0 -- -- 82
2020-01-17 21:00:00 3 15 Noroeste 27 Noroeste 0 -- -- 82
2020-01-17 20:00:00 3.7 19 Noroeste 27 Noroeste 0 -- -- 81
2020-01-17 19:00:00 4.7 20 Noroeste 30 Noroeste 0 -- -- 78
2020-01-17 18:00:00 6.7 13 Noroeste 26 Noroeste 0 -- -- 68
2020-01-17 17:00:00 7.4 9 Noroeste 45 Noroeste 0.2 -- -- 67
2020-01-17 16:00:00 9.9 9 Oeste 28 Oeste 0 -- -- 56
2020-01-17 15:00:00 9.2 4 Sudeste 34 Sudoeste 0.4 -- -- 70
2020-01-17 14:00:00 10.1 12 Sudoeste 41 Sudoeste 0.2 -- -- 69
2020-01-17 13:00:00 9.9 5 Sur 10 Sudoeste 0 -- -- 71
2020-01-17 12:00:00 8 4 Sudeste 8 Sudeste 0 -- -- 77
2020-01-17 11:00:00 6.1 4 Norte 23 Noroeste 0 -- -- 84
2020-01-17 10:00:00 3.8 11 Noroeste 26 Noroeste 0 -- -- 88
2020-01-17 09:00:00 3.7 14 Noroeste 26 Noroeste 0 -- -- 88
2020-01-17 08:00:00 4.3 15 Noroeste 30 Noroeste 0 -- -- 86
2020-01-17 07:00:00 4.4 10 Noroeste 25 Noroeste 0 -- -- 87
2020-01-17 06:00:00 4.4 9 Noroeste 23 Noroeste 0 -- -- 86
2020-01-17 05:00:00 4.4 10 Noroeste 34 Noroeste 0 -- -- 83
2020-01-17 04:00:00 4.3 22 Noroeste 31 Noroeste 0 -- -- 83
2020-01-17 03:00:00 4.6 21 Noroeste 30 Noroeste 0 -- -- 82
2020-01-17 02:00:00 4.5 16 Noroeste 27 Noroeste 0 -- -- 83
2020-01-17 01:00:00 5.1 14 Noroeste 22 Noroeste 0 -- -- 80
2020-01-17 00:00:00 5.6 11 Noroeste 25 Noroeste 0 -- -- 77
2020-01-16 23:00:00 6.3 16 Noroeste 30 Noroeste 0 -- -- 74
2020-01-16 22:00:00 6.6 17 Noroeste 24 Noroeste 0 -- -- 73
2020-01-16 21:00:00 6.7 18 Noroeste 27 Noroeste 0 -- -- 73
2020-01-16 20:00:00 6.6 14 Noroeste 28 Noroeste 0 -- -- 75
2020-01-16 19:00:00 8.1 11 Noroeste 17 Noroeste 0 -- -- 68
2020-01-16 18:00:00 10 0 Calma 4 Oeste 0 -- -- 61
2020-01-16 17:00:00 11.7 0 Calma 9 Sur 0 -- -- 55
2020-01-16 16:00:00 13.3 4 Sur 10 Sur 0 -- -- 50
2020-01-16 15:00:00 12.6 4 Sudeste 8 Este 0 -- -- 50
2020-01-16 14:00:00 11.8 3 Este 7 Sur 0 -- -- 50
2020-01-16 13:00:00 8.9 3 Este 20 Noroeste 0 -- -- 57
2020-01-16 12:00:00 5.2 14 Noroeste 30 Noroeste 0 -- -- 65
2020-01-16 11:00:00 2.3 19 Noroeste 47 Noroeste 0 -- -- 76
2020-01-16 10:00:00 0.1 29 Noroeste 46 Noroeste 0 -- -- 84
2020-01-16 09:00:00 -0.4 34 Noroeste 52 Noroeste 0 -- -- 86
2020-01-16 08:00:00 0.1 35 Noroeste 46 Noroeste 0 -- -- 85
2020-01-16 07:00:00 0.1 35 Noroeste 45 Noroeste 0 -- -- 84
2020-01-16 06:00:00 0.1 32 Noroeste 47 Noroeste 0 -- -- 85
2020-01-16 05:00:00 0.7 29 Noroeste 46 Noroeste 0 -- -- 83
2020-01-16 04:00:00 0.9 32 Noroeste 45 Noroeste 0 -- -- 83
2020-01-16 03:00:00 1.6 26 Noroeste 43 Noroeste 0 -- -- 81
2020-01-16 02:00:00 1.6 30 Noroeste 42 Noroeste 0 -- -- 80
2020-01-16 01:00:00 2 27 Noroeste 41 Noroeste 0 -- -- 80
2020-01-16 00:00:00 2.8 22 Noroeste 36 Noroeste 0 -- -- 78
2020-01-15 23:00:00 3.5 21 Noroeste 37 Noroeste 0 -- -- 76
2020-01-15 22:00:00 4.2 19 Noroeste 32 Noroeste 0 -- -- 73
2020-01-15 21:00:00 4.9 12 Noroeste 28 Noroeste 0 -- -- 71
2020-01-15 20:00:00 5.7 10 Noroeste 17 Noroeste 0 -- -- 69
2020-01-15 19:00:00 6.5 4 Sur 8 Sur 0 -- -- 65
2020-01-15 18:00:00 8.3 3 Sudeste 6 Sudeste 0 -- -- 58
2020-01-15 17:00:00 9.8 3 Este 14 Sur 0 -- -- 51
2020-01-15 16:00:00 11.1 10 Sur 14 Sudoeste 0 -- -- 45
2020-01-15 15:00:00 10.1 8 Sudeste 13 Sur 0 -- -- 45
2020-01-15 14:00:00 9.4 9 Sur 12 Sur 0 -- -- 48
2020-01-15 13:00:00 6.9 4 Sudeste 26 Noroeste 0 -- -- 52
2020-01-15 12:00:00 3 15 Noroeste 35 Noroeste 0 -- -- 58
2020-01-15 11:00:00 0.2 24 Noroeste 40 Noroeste 0 -- -- 68
2020-01-15 10:00:00 -1.6 19 Noroeste 43 Noroeste 0 -- -- 77
2020-01-15 09:00:00 -1.6 23 Noroeste 45 Noroeste 0 -- -- 76
2020-01-15 08:00:00 -1.7 28 Noroeste 42 Noroeste 0 -- -- 78
2020-01-15 07:00:00 -1.7 26 Noroeste 44 Noroeste 0 -- -- 79
2020-01-15 06:00:00 -1.4 26 Noroeste 42 Noroeste 0 -- -- 78
2020-01-15 05:00:00 -1.2 29 Noroeste 46 Noroeste 0 -- -- 78
2020-01-15 04:00:00 -0.6 24 Noroeste 45 Noroeste 0 -- -- 75
2020-01-15 03:00:00 -0.3 33 Noroeste 48 Noroeste 0 -- -- 73
2020-01-15 02:00:00 -0.2 30 Noroeste 45 Noroeste 0 -- -- 74
2020-01-15 01:00:00 0.5 30 Noroeste 44 Noroeste 0 -- -- 72
2020-01-15 00:00:00 0.9 28 Noroeste 46 Noroeste 0 -- -- 70
2020-01-14 23:00:00 1.3 32 Noroeste 45 Noroeste 0 -- -- 70
2020-01-14 22:00:00 2.3 25 Noroeste 44 Noroeste 0 -- -- 66
2020-01-14 21:00:00 3.2 21 Noroeste 40 Noroeste 0 -- -- 64
2020-01-14 20:00:00 4.2 21 Noroeste 29 Noroeste 0 -- -- 63
2020-01-14 19:00:00 5.7 10 Noroeste 14 Noroeste 0 -- -- 59
2020-01-14 18:00:00 7.8 3 Este 8 Sudeste 0 -- -- 51
2020-01-14 17:00:00 9.8 4 Sur 13 Sur 0 -- -- 44
2020-01-14 16:00:00 11 4 Sudeste 9 Sudoeste 0 -- -- 38
2020-01-14 15:00:00 10.8 5 Sudeste 9 Sudoeste 0 -- -- 38
2020-01-14 14:00:00 9.2 6 Sudeste 11 Sudeste 0 -- -- 42
2020-01-14 13:00:00 7.3 6 Sudeste 11 Este 0 -- -- 46
2020-01-14 12:00:00 4 8 Noroeste 31 Noroeste 0 -- -- 48
2020-01-14 11:00:00 1.2 23 Noroeste 43 Noroeste 0 -- -- 58
2020-01-14 10:00:00 -1.4 24 Noroeste 44 Noroeste 0 -- -- 72
2020-01-14 09:00:00 -2 27 Noroeste 45 Noroeste 0 -- -- 73
2020-01-14 08:00:00 -1.8 25 Noroeste 49 Noroeste 0 -- -- 72
2020-01-14 07:00:00 -1.4 27 Noroeste 46 Noroeste 0 -- -- 71
2020-01-14 06:00:00 -1.4 27 Noroeste 41 Noroeste 0 -- -- 73
2020-01-14 05:00:00 -1.1 24 Noroeste 45 Noroeste 0 -- -- 71
2020-01-14 04:00:00 -0.8 26 Noroeste 45 Noroeste 0 -- -- 72
2020-01-14 03:00:00 -0.5 27 Noroeste 46 Noroeste 0 -- -- 71
2020-01-14 02:00:00 -0.4 30 Noroeste 42 Noroeste 0 -- -- 72
2020-01-14 01:00:00 0.3 23 Noroeste 41 Noroeste 0 -- -- 69
2020-01-14 00:00:00 0.8 22 Noroeste 41 Noroeste 0 -- -- 68
2020-01-13 23:00:00 1.2 23 Noroeste 38 Noroeste 0 -- -- 67
2020-01-13 22:00:00 1.8 23 Noroeste 36 Noroeste 0 -- -- 64
2020-01-13 21:00:00 2.5 18 Noroeste 32 Noroeste 0 -- -- 62
2020-01-13 20:00:00 3.5 15 Noroeste 24 Noroeste 0 -- -- 58
2020-01-13 19:00:00 4.6 9 Noroeste 17 Noroeste 0 -- -- 55
2020-01-13 18:00:00 5.5 3 Sudeste 6 Este 0 -- -- 51
2020-01-13 17:00:00 7.6 3 Sur 8 Sur 0 -- -- 41
2020-01-13 16:00:00 8.5 4 Sur 13 Sudoeste 0 -- -- 39
2020-01-13 15:00:00 9.4 8 Sur 12 Sur 0 -- -- 35
2020-01-13 14:00:00 8.6 5 Sur 10 Sudeste 0 -- -- 40
2020-01-13 13:00:00 5.1 9 Noroeste 23 Noroeste 0 -- -- 44
2020-01-13 12:00:00 3 13 Norte 42 Noroeste 0 -- -- 50
2020-01-13 11:00:00 0.4 27 Noroeste 43 Noroeste 0 -- -- 58
2020-01-13 10:00:00 -1.9 28 Noroeste 49 Noroeste 0 -- -- 68
2020-01-13 09:00:00 -2.1 31 Noroeste 54 Noroeste 0 -- -- 68
2020-01-13 08:00:00 -2.4 27 Noroeste 45 Noroeste 0 -- -- 72
2020-01-13 07:00:00 -2.1 27 Noroeste 46 Noroeste 0 -- -- 72
2020-01-13 06:00:00 -1.9 28 Noroeste 45 Noroeste 0 -- -- 70
2020-01-13 05:00:00 -1.2 23 Noroeste 44 Oeste 0 -- -- 68
2020-01-13 04:00:00 -1 30 Noroeste 45 Noroeste 0 -- -- 67
2020-01-13 03:00:00 -0.3 26 Noroeste 44 Noroeste 0 -- -- 64
2020-01-13 02:00:00 -0.2 30 Noroeste 48 Noroeste 0 -- -- 65
2020-01-13 01:00:00 0.2 33 Noroeste 49 Noroeste 0 -- -- 64
2020-01-13 00:00:00 1.1 34 Noroeste 49 Noroeste 0 -- -- 60
2020-01-12 23:00:00 1.5 32 Noroeste 42 Noroeste 0 -- -- 60
2020-01-12 22:00:00 2.3 29 Noroeste 41 Noroeste 0 -- -- 57
2020-01-12 21:00:00 3.4 23 Noroeste 36 Noroeste 0 -- -- 53
2020-01-12 20:00:00 4.6 18 Noroeste 27 Noroeste 0 -- -- 52
2020-01-12 19:00:00 5.1 13 Noroeste 20 Noroeste 0 -- -- 55
2020-01-12 18:00:00 7.2 0 Calma 6 Este 0 -- -- 44
2020-01-12 17:00:00 8.9 0 Calma 12 Sur 0 -- -- 37
2020-01-12 16:00:00 11 9 Sur 12 Sur 0 -- -- 30
2020-01-12 15:00:00 10.5 6 Sur 10 Sur 0 -- -- 38
2020-01-12 14:00:00 9.4 6 Sudeste 10 Sur 0 -- -- 40
2020-01-12 13:00:00 7.4 4 Sudeste 24 Noroeste 0 -- -- 41
2020-01-12 12:00:00 3.8 15 Noroeste 42 Noroeste 0 -- -- 43
2020-01-12 11:00:00 0.6 28 Noroeste 47 Noroeste 0 -- -- 53
2020-01-12 10:00:00 -1.7 34 Noroeste 55 Noroeste 0 -- -- 61
2020-01-12 09:00:00 -2 36 Noroeste 51 Noroeste 0 -- -- 62
2020-01-12 08:00:00 -2 31 Noroeste 56 Noroeste 0 -- -- 63
2020-01-12 07:00:00 -2 32 Noroeste 45 Noroeste 0 -- -- 65
2020-01-12 06:00:00 -1.7 31 Noroeste 50 Noroeste 0 -- -- 64
2020-01-12 05:00:00 -1.7 31 Noroeste 49 Noroeste 0 -- -- 66
2020-01-12 04:00:00 -1 30 Noroeste 51 Noroeste 0 -- -- 63
2020-01-12 03:00:00 -0.8 30 Noroeste 48 Noroeste 0 -- -- 63
2020-01-12 02:00:00 -0.5 30 Noroeste 48 Noroeste 0 -- -- 62
2020-01-12 01:00:00 0 26 Noroeste 44 Noroeste 0 -- -- 62
2020-01-12 00:00:00 0.5 30 Noroeste 45 Noroeste 0 -- -- 63
2020-01-11 23:00:00 1.3 24 Noroeste 45 Noroeste 0 -- -- 58
2020-01-11 22:00:00 2 23 Noroeste 40 Noroeste 0 -- -- 57
2020-01-11 21:00:00 2.9 13 Noroeste 29 Noroeste 0 -- -- 58
2020-01-11 20:00:00 3.8 14 Noroeste 26 Noroeste 0 -- -- 56
2020-01-11 19:00:00 4.8 12 Noroeste 18 Noroeste 0 -- -- 58
2020-01-11 18:00:00 7.2 2 Noroeste 6 Sudeste 0 -- -- 46
2020-01-11 17:00:00 9 0 Calma 9 Sur 0 -- -- 42
2020-01-11 16:00:00 10.4 4 Sudeste 8 Sudeste 0 -- -- 37
2020-01-11 15:00:00 10.1 5 Sudeste 12 Sur 0 -- -- 37
2020-01-11 14:00:00 9.7 7 Sur 11 Sur 0 -- -- 41
2020-01-11 13:00:00 7.5 4 Sudeste 8 Este 0 -- -- 48
2020-01-11 12:00:00 5.1 4 Este 27 Noroeste 0 -- -- 54
2020-01-11 11:00:00 2 21 Noroeste 37 Noroeste 0 -- -- 49
2020-01-11 10:00:00 -0.2 22 Noroeste 40 Noroeste 0 -- -- 56
2020-01-11 09:00:00 -0.5 17 Noroeste 43 Noroeste 0 -- -- 59
2020-01-11 08:00:00 -0.4 30 Noroeste 43 Noroeste 0 -- -- 60
2020-01-11 07:00:00 -0.2 26 Noroeste 44 Noroeste 0 -- -- 63
2020-01-11 06:00:00 0.4 20 Noroeste 43 Noroeste 0 -- -- 60
2020-01-11 05:00:00 0.5 24 Noroeste 36 Noroeste 0 -- -- 65
2020-01-11 04:00:00 0.8 21 Noroeste 35 Noroeste 0 -- -- 70
2020-01-11 03:00:00 1 21 Noroeste 31 Noroeste 0 -- -- 77
2020-01-11 02:00:00 0.7 5 Norte 13 Noroeste 0 -- -- 85
2020-01-11 01:00:00 1.2 2 Sudeste 15 Oeste 0 -- -- 84
2020-01-11 00:00:00 2 10 Noroeste 18 Noroeste 0 -- -- 80
2020-01-10 23:00:00 2.5 9 Noroeste 14 Oeste 0 -- -- 83
2020-01-10 22:00:00 2.7 2 Sudoeste 6 Sudoeste 0 -- -- 87
2020-01-10 21:00:00 3.4 0 Calma 9 Sur 0 -- -- 84
2020-01-10 20:00:00 4.4 0 Calma 8 Noroeste 0 -- -- 81
2020-01-10 19:00:00 5.6 0 Calma 7 Este 0 -- -- 77
2020-01-10 18:00:00 7.1 4 Sur 19 Sur 0 -- -- 70
2020-01-10 17:00:00 8.6 13 Sur 22 Sur 0 -- -- 67
2020-01-10 16:00:00 10.4 10 Sur 23 Sur 0 -- -- 60
2020-01-10 15:00:00 11.3 11 Sur 18 Sur 0 -- -- 57
2020-01-10 14:00:00 10.7 6 Sudeste 12 Nordeste 0 -- -- 56
2020-01-10 13:00:00 9.2 6 Este 10 Este 0 -- -- 68
2020-01-10 12:00:00 8 5 Sudeste 10 Este 0 -- -- 77
2020-01-10 11:00:00 5.5 5 Sudeste 9 Este 0 -- -- 93
2020-01-10 10:00:00 3.8 3 Sudeste 6 Sudeste 0 -- -- 91
2020-01-10 09:00:00 3.9 3 Sudoeste 5 Sur 0 -- -- 90
2020-01-10 08:00:00 4.1 0 Calma 9 Sudeste 0 -- -- 89
2020-01-10 07:00:00 4.1 3 Oeste 9 Noroeste 0.4 -- -- 88
2020-01-10 06:00:00 4.6 3 Noroeste 28 Noroeste 0 -- -- 82
2020-01-10 05:00:00 4.7 9 Noroeste 23 Noroeste 0 -- -- 81
2020-01-10 04:00:00 4.9 9 Noroeste 19 Noroeste 0 -- -- 81
2020-01-10 03:00:00 5.2 0 Calma 8 Noroeste 0 -- -- 81
2020-01-10 02:00:00 5.6 5 Oeste 12 Sudoeste 0 -- -- 79
2020-01-10 01:00:00 5.7 4 Oeste 10 Noroeste 0 -- -- 78
2020-01-10 00:00:00 5.9 3 Noroeste 9 Noroeste 0 -- -- 77
2020-01-09 23:00:00 6 6 Noroeste 10 Noroeste 0 -- -- 75
2020-01-09 22:00:00 5.8 4 Oeste 10 Noroeste 0 -- -- 75
2020-01-09 21:00:00 6.4 9 Noroeste 16 Noroeste 0 -- -- 71
2020-01-09 20:00:00 6.8 9 Noroeste 13 Noroeste 0 -- -- 69
2020-01-09 19:00:00 7.7 2 Oeste 10 Noroeste 0 -- -- 64
2020-01-09 18:00:00 9 0 Calma 9 Este 0 -- -- 58
2020-01-09 17:00:00 10.7 2 Sudeste 13 Sur 0 -- -- 52
2020-01-09 16:00:00 12.6 10 Sur 16 Sur 0 -- -- 47
2020-01-09 15:00:00 12.7 10 Sur 16 Sur 0 -- -- 47
2020-01-09 14:00:00 11.5 4 Sudeste 9 Sudeste 0 -- -- 55
2020-01-09 13:00:00 9.2 4 Este 17 Noroeste 0 -- -- 61
2020-01-09 12:00:00 5 13 Noroeste 28 Noroeste 0 -- -- 72
2020-01-09 11:00:00 3.2 19 Noroeste 36 Noroeste 0 -- -- 79
2020-01-09 10:00:00 1 24 Noroeste 45 Noroeste 0 -- -- 86
2020-01-09 09:00:00 0.8 27 Noroeste 47 Noroeste 0 -- -- 85
2020-01-09 08:00:00 1.1 32 Noroeste 48 Noroeste 0 -- -- 85
2020-01-09 07:00:00 1 31 Noroeste 48 Noroeste 0 -- -- 85
2020-01-09 06:00:00 1.4 26 Noroeste 43 Noroeste 0 -- -- 84
2020-01-09 05:00:00 1.5 31 Noroeste 43 Noroeste 0 -- -- 84
2020-01-09 04:00:00 1.7 24 Noroeste 43 Noroeste 0 -- -- 85
2020-01-09 03:00:00 2.1 26 Noroeste 41 Oeste 0 -- -- 84
2020-01-09 02:00:00 2.5 28 Noroeste 43 Noroeste 0 -- -- 83
2020-01-09 01:00:00 3 26 Noroeste 38 Noroeste 0 -- -- 80
2020-01-09 00:00:00 3.5 23 Noroeste 39 Noroeste 0 -- -- 79
2020-01-08 23:00:00 4.1 23 Noroeste 34 Noroeste 0 -- -- 78
2020-01-08 22:00:00 5 18 Noroeste 27 Noroeste 0 -- -- 74
2020-01-08 21:00:00 5.8 15 Noroeste 25 Noroeste 0 -- -- 72
2020-01-08 20:00:00 6.6 12 Noroeste 17 Noroeste 0 -- -- 71
2020-01-08 19:00:00 7.9 0 Calma 6 Sudeste 0 -- -- 65
2020-01-08 18:00:00 10.3 0 Calma 5 Oeste 0 -- -- 57
2020-01-08 17:00:00 11.7 4 Sur 13 Sur 0 -- -- 50
2020-01-08 16:00:00 13.2 5 Sudeste 10 Sur 0 -- -- 44
2020-01-08 15:00:00 13.2 6 Sur 10 Sur 0 -- -- 43
2020-01-08 14:00:00 12.5 5 Sur 12 Sur 0 -- -- 44
2020-01-08 13:00:00 10.5 5 Sudeste 9 Sur 0 -- -- 53
2020-01-08 12:00:00 8 4 Sudeste 15 Noroeste 0 -- -- 61
2020-01-08 11:00:00 5.1 11 Noroeste 30 Noroeste 0 -- -- 66
2020-01-08 10:00:00 2.9 17 Noroeste 40 Noroeste 0 -- -- 74
2020-01-08 09:00:00 2.4 26 Noroeste 45 Noroeste 0 -- -- 75
2020-01-08 08:00:00 2.3 27 Noroeste 44 Noroeste 0 -- -- 77
2020-01-08 07:00:00 2.8 21 Noroeste 46 Noroeste 0 -- -- 74
2020-01-08 06:00:00 3.2 27 Noroeste 48 Noroeste 0 -- -- 71
2020-01-08 05:00:00 3.4 22 Noroeste 42 Noroeste 0 -- -- 71
2020-01-08 04:00:00 3.5 22 Noroeste 42 Noroeste 0 -- -- 70
2020-01-08 03:00:00 3.2 26 Noroeste 42 Noroeste 0 -- -- 73
2020-01-08 02:00:00 3.4 19 Noroeste 31 Noroeste 0 -- -- 72
2020-01-08 01:00:00 3.4 18 Noroeste 35 Noroeste 0 -- -- 72
2020-01-08 00:00:00 3.6 17 Noroeste 26 Noroeste 0 -- -- 73
2020-01-07 23:00:00 4.1 17 Noroeste 24 Noroeste 0 -- -- 71
2020-01-07 22:00:00 4.5 16 Noroeste 27 Noroeste 0 -- -- 70
2020-01-07 21:00:00 5.2 15 Noroeste 24 Noroeste 0 -- -- 69
2020-01-07 20:00:00 5.8 9 Noroeste 21 Noroeste 0 -- -- 67
2020-01-07 19:00:00 7 13 Noroeste 23 Noroeste 0 -- -- 64
2020-01-07 18:00:00 8.5 3 Oeste 15 Noroeste 0 -- -- 59
2020-01-07 17:00:00 9.9 2 Sur 9 Sudoeste 0 -- -- 54
2020-01-07 16:00:00 11.6 2 Sur 9 Sur 0 -- -- 49
2020-01-07 15:00:00 10.8 5 Sudeste 9 Sudeste 0 -- -- 50
2020-01-07 14:00:00 9.9 5 Sudeste 11 Sudeste 0 -- -- 53
2020-01-07 13:00:00 8.4 3 Este 25 Noroeste 0 -- -- 52
2020-01-07 12:00:00 5.1 18 Noroeste 44 Noroeste 0 -- -- 57
2020-01-07 11:00:00 2.5 22 Noroeste 48 Noroeste 0 -- -- 67
2020-01-07 10:00:00 0.3 26 Noroeste 49 Noroeste 0 -- -- 77
2020-01-07 09:00:00 -0.2 29 Noroeste 48 Noroeste 0 -- -- 80
2020-01-07 08:00:00 -0.2 28 Noroeste 48 Noroeste 0 -- -- 81
2020-01-07 07:00:00 0.2 28 Noroeste 52 Noroeste 0 -- -- 80
2020-01-07 06:00:00 0 28 Noroeste 46 Noroeste 0 -- -- 83
2020-01-07 05:00:00 0.4 28 Noroeste 45 Noroeste 0 -- -- 81
2020-01-07 04:00:00 0.7 23 Noroeste 40 Noroeste 0 -- -- 81
2020-01-07 03:00:00 1.2 24 Noroeste 46 Noroeste 0 -- -- 78
2020-01-07 02:00:00 1.5 26 Noroeste 45 Noroeste 0 -- -- 77
2020-01-07 01:00:00 1.9 24 Noroeste 39 Noroeste 0 -- -- 77
2020-01-07 00:00:00 2.4 23 Noroeste 42 Noroeste 0 -- -- 75
2020-01-06 23:00:00 3.1 23 Noroeste 41 Noroeste 0 -- -- 73
2020-01-06 22:00:00 3.6 26 Noroeste 38 Noroeste 0 -- -- 72
2020-01-06 21:00:00 4.5 15 Noroeste 27 Noroeste 0 -- -- 69
2020-01-06 20:00:00 5.5 14 Noroeste 27 Noroeste 0 -- -- 67
2020-01-06 19:00:00 6.3 14 Noroeste 22 Noroeste 0 -- -- 65
2020-01-06 18:00:00 8.1 2 Este 9 Este 0 -- -- 56
2020-01-06 17:00:00 10.1 0 Calma 9 Este 0 -- -- 46
2020-01-06 16:00:00 11.5 5 Sur 9 Sur 0 -- -- 42
2020-01-06 15:00:00 11.1 5 Sudeste 8 Este 0 -- -- 44
2020-01-06 14:00:00 10.5 5 Sudeste 8 Sudeste 0 -- -- 45
2020-01-06 13:00:00 8.8 4 Sudeste 8 Noroeste 0 -- -- 51
2020-01-06 12:00:00 4.8 7 Noroeste 23 Noroeste 0 -- -- 58
2020-01-06 11:00:00 2.7 15 Noroeste 32 Noroeste 0 -- -- 64
2020-01-06 10:00:00 0.5 19 Noroeste 40 Noroeste 0 -- -- 73